Evans, Georgia
Current Conditions -  °F | °C
As of 4:53 AM on Monday 22 Dec 2014 (Local Time) from KDNL Reporting Station
Light Rain Light Rain  
Wind Chill: 43°   Ceiling: 500
Heat Index: 47°   Visibility: 5mi
Dew Point: 46°   Wind: 8mph
Humidity: 97%   Direction: 30°NNE
Pressure: 30.05"   Gusts: NA
Location:  33.53°N, 82.13°W
Report Text: KDNL 220953Z AUTO 03007KT 5SM -RA BR OVC005 08/08 A3005 RMK AO2 RAB16 SLP176 P0000 T00830078
Loading
Personal Weather Stations






























Interactive Weather Map New forecast layout! Learn more

10-Day Weather Forecast

Advertisements
Track Severe Weather on mobile